createdAt,value
2019-05-15T00:01:25.547Z,3.87
2019-05-15T00:03:52.146Z,3.80
2019-05-15T00:06:19.165Z,2.90
2019-05-15T00:08:47.997Z,3.58
2019-05-15T00:11:14.784Z,3.35
2019-05-15T00:13:41.577Z,3.40
2019-05-15T00:16:08.654Z,3.17
2019-05-15T00:18:35.616Z,3.08
2019-05-15T00:21:02.355Z,3.35
2019-05-15T00:23:29.305Z,3.35
2019-05-15T00:25:58.489Z,4.15
2019-05-15T00:28:24.652Z,4.12
2019-05-15T00:30:51.367Z,3.40
2019-05-15T00:33:19.343Z,3.65
2019-05-15T00:35:48.435Z,2.67
2019-05-15T00:38:14.738Z,3.98
2019-05-15T00:40:41.509Z,4.08
2019-05-15T00:43:08.946Z,4.30
2019-05-15T00:45:38.573Z,3.58
2019-05-15T00:48:05.692Z,2.95
2019-05-15T00:50:32.510Z,2.70
2019-05-15T00:53:00.205Z,3.27
2019-05-15T00:55:30.935Z,3.00
2019-05-15T00:57:59.009Z,3.25
2019-05-15T01:00:42.100Z,2.85
2019-05-15T01:03:09.817Z,2.62
2019-05-15T01:05:38.613Z,2.75
2019-05-15T01:08:09.030Z,2.50
2019-05-15T01:10:38.371Z,3.20
2019-05-15T01:13:04.506Z,2.77
2019-05-15T01:15:31.365Z,2.60
2019-05-15T01:17:58.376Z,3.05
2019-05-15T01:20:25.410Z,2.70
2019-05-15T01:22:52.221Z,3.05
2019-05-15T01:25:19.351Z,3.47
2019-05-15T01:27:46.009Z,2.60
2019-05-15T01:32:59.259Z,2.58
2019-05-15T01:35:25.987Z,3.02
2019-05-15T01:37:53.613Z,3.40
2019-05-15T01:40:28.923Z,3.40
2019-05-15T01:42:58.155Z,3.12
2019-05-15T01:45:24.259Z,3.10
2019-05-15T01:47:50.871Z,2.92
2019-05-15T01:50:18.775Z,2.72
2019-05-15T01:53:04.161Z,3.33
2019-05-15T01:55:30.719Z,3.35
2019-05-15T01:57:59.439Z,2.50
2019-05-15T02:00:28.165Z,2.50
2019-05-15T02:02:54.741Z,2.80
2019-05-15T02:05:21.725Z,2.83
2019-05-15T02:07:50.180Z,3.35
2019-05-15T02:10:20.522Z,3.30
2019-05-15T02:12:48.111Z,2.58
2019-05-15T02:15:15.349Z,2.50
2019-05-15T02:17:42.371Z,2.50
2019-05-15T02:20:13.160Z,3.05
2019-05-15T02:22:42.484Z,4.03
2019-05-15T02:25:08.989Z,3.52
2019-05-15T02:27:35.670Z,3.20
2019-05-15T02:30:21.103Z,2.95
2019-05-15T02:32:58.710Z,3.17
2019-05-15T02:35:24.138Z,3.62
2019-05-15T02:37:50.689Z,3.50
2019-05-15T02:40:19.193Z,3.27
2019-05-15T02:42:49.048Z,2.85
2019-05-15T02:45:14.893Z,2.87
2019-05-15T02:47:41.713Z,3.17
2019-05-15T02:50:10.768Z,2.90
2019-05-15T02:52:39.633Z,2.80
2019-05-15T02:55:09.373Z,2.40
2019-05-15T02:57:35.334Z,2.47
2019-05-15T03:00:10.365Z,2.30
2019-05-15T03:02:35.638Z,3.37
2019-05-15T03:05:09.257Z,3.27
2019-05-15T03:07:39.702Z,2.20
2019-05-15T03:10:05.325Z,2.20
2019-05-15T03:12:32.231Z,2.08
2019-05-15T03:15:00.616Z,2.60
2019-05-15T03:17:29.680Z,2.80
2019-05-15T03:19:59.077Z,2.70
2019-05-15T03:22:25.070Z,2.33
2019-05-15T03:24:51.662Z,2.08
2019-05-15T03:27:19.734Z,2.80
2019-05-15T03:29:49.411Z,2.70
2019-05-15T03:32:27.815Z,2.00
2019-05-15T03:34:47.802Z,2.27
2019-05-15T03:37:13.096Z,2.22
2019-05-15T03:39:40.189Z,2.15
2019-05-15T03:42:09.593Z,2.45
2019-05-15T03:44:39.028Z,2.65
2019-05-15T03:47:04.467Z,2.02
2019-05-15T03:49:31.119Z,2.00
2019-05-15T03:51:58.914Z,2.05
2019-05-15T03:54:44.900Z,2.10
2019-05-15T03:57:11.462Z,2.20
2019-05-15T03:59:39.968Z,1.95
2019-05-15T04:02:08.673Z,2.02
2019-05-15T04:04:35.374Z,2.20
2019-05-15T04:07:02.098Z,1.80
2019-05-15T04:09:29.414Z,2.25
2019-05-15T04:11:59.807Z,2.30
2019-05-15T04:14:25.343Z,2.33
2019-05-15T04:16:52.068Z,1.82
2019-05-15T04:19:19.583Z,1.90
2019-05-15T04:21:49.131Z,2.87
2019-05-15T04:24:15.531Z,2.30
2019-05-15T04:26:44.355Z,2.50
2019-05-15T04:29:10.964Z,2.15
2019-05-15T04:31:51.926Z,2.12
2019-05-15T04:34:08.988Z,2.25
2019-05-15T04:36:34.452Z,2.87
2019-05-15T04:39:00.937Z,2.45
2019-05-15T04:41:29.975Z,2.20
2019-05-15T04:43:56.002Z,1.98
2019-05-15T04:46:22.496Z,2.15
2019-05-15T04:48:50.148Z,2.27
2019-05-15T04:51:19.011Z,2.60
2019-05-15T04:53:49.920Z,2.20
2019-05-15T04:56:14.923Z,2.30
2019-05-15T04:58:42.629Z,2.25
2019-05-15T05:01:09.658Z,2.62
2019-05-15T05:03:39.351Z,2.85
2019-05-15T05:06:05.273Z,2.50
2019-05-15T05:08:33.947Z,2.75
2019-05-15T05:11:00.643Z,2.90
2019-05-15T05:13:28.683Z,2.02
2019-05-15T05:15:58.456Z,3.00
2019-05-15T05:18:24.322Z,3.45
2019-05-15T05:20:51.141Z,2.77
2019-05-15T05:23:19.358Z,2.98
2019-05-15T05:25:48.817Z,2.50
2019-05-15T05:28:15.296Z,2.95
2019-05-15T05:30:42.333Z,4.05
2019-05-15T05:33:09.071Z,3.40
2019-05-15T05:35:35.719Z,3.00
2019-05-15T05:38:02.692Z,3.30
2019-05-15T05:40:29.521Z,3.70
2019-05-15T05:42:59.617Z,3.80
2019-05-15T05:45:28.718Z,4.45
2019-05-15T05:47:55.087Z,3.10
2019-05-15T05:50:44.051Z,3.25
2019-05-15T05:53:10.149Z,4.03
2019-05-15T05:55:38.503Z,4.35
2019-05-15T05:58:08.023Z,5.33
2019-05-15T06:00:39.328Z,4.12
2019-05-15T06:03:08.722Z,4.10
2019-05-15T06:05:38.772Z,3.83
2019-05-15T06:08:08.043Z,4.25
2019-05-15T06:10:35.016Z,4.33
2019-05-15T06:13:01.671Z,4.33
2019-05-15T06:15:28.629Z,4.05
2019-05-15T06:17:55.280Z,4.47
2019-05-15T06:20:22.023Z,5.28
2019-05-15T06:22:48.519Z,5.70
2019-05-15T06:25:15.348Z,5.20
2019-05-15T06:27:43.593Z,4.42
2019-05-15T06:30:18.485Z,4.35
2019-05-15T06:32:40.247Z,6.58
2019-05-15T06:35:08.695Z,5.95
2019-05-15T06:37:35.864Z,6.15
2019-05-15T06:40:03.770Z,7.00
2019-05-15T06:42:30.478Z,4.50
2019-05-15T06:44:58.971Z,4.72
2019-05-15T06:47:25.877Z,4.37
2019-05-15T06:49:52.429Z,5.37
2019-05-15T06:52:19.135Z,5.17
2019-05-15T06:54:48.358Z,4.95
2019-05-15T06:57:14.497Z,4.70
2019-05-15T06:59:41.337Z,5.10
2019-05-15T07:02:08.182Z,5.78
2019-05-15T07:04:34.861Z,5.05
2019-05-15T07:07:01.733Z,5.22
2019-05-15T07:09:28.653Z,4.97
2019-05-15T07:11:55.543Z,4.90
2019-05-15T07:14:22.353Z,6.47
2019-05-15T07:16:49.056Z,4.75
2019-05-15T07:19:18.990Z,4.17
2019-05-15T07:21:45.953Z,4.80
2019-05-15T07:24:12.650Z,4.53
2019-05-15T07:26:39.443Z,6.03
2019-05-15T07:29:07.900Z,5.30
2019-05-15T07:31:34.743Z,5.00
2019-05-15T07:34:01.638Z,4.75
2019-05-15T07:36:28.837Z,5.60
2019-05-15T07:38:58.079Z,5.60
2019-05-15T07:41:24.968Z,4.33
2019-05-15T07:43:51.487Z,4.55
2019-05-15T07:46:18.554Z,5.30
2019-05-15T07:48:45.401Z,5.47
2019-05-15T07:51:12.119Z,6.12
2019-05-15T07:53:38.879Z,4.53
2019-05-15T07:56:05.606Z,5.10
2019-05-15T07:58:32.556Z,4.42
2019-05-15T08:00:59.516Z,5.03
2019-05-15T08:03:29.037Z,6.25
2019-05-15T08:05:59.053Z,6.12
2019-05-15T08:08:23.203Z,6.25
2019-05-15T08:10:49.870Z,9.00
2019-05-15T08:13:18.523Z,5.15
2019-05-15T08:15:45.194Z,6.72
2019-05-15T08:18:12.957Z,7.78
2019-05-15T08:20:39.930Z,5.28
2019-05-15T08:23:08.511Z,4.58
2019-05-15T08:25:38.776Z,12.33
2019-05-15T08:28:08.327Z,11.90
2019-05-15T08:30:34.618Z,5.78
2019-05-15T08:33:03.005Z,4.37
2019-05-15T08:35:29.685Z,4.58
2019-05-15T08:37:58.230Z,4.33
2019-05-15T08:40:25.106Z,4.05
2019-05-15T08:42:57.082Z,3.77
2019-05-15T08:45:20.549Z,5.20
2019-05-15T08:47:49.291Z,3.45
2019-05-15T08:50:18.264Z,3.42
2019-05-15T08:52:44.760Z,3.47
2019-05-15T08:55:12.095Z,4.25
2019-05-15T08:57:38.763Z,4.12
2019-05-15T09:00:09.627Z,3.02
2019-05-15T09:02:38.097Z,2.98
2019-05-15T09:05:08.616Z,2.75
2019-05-15T09:07:38.345Z,2.80
2019-05-15T09:10:09.430Z,3.65
2019-05-15T09:12:38.820Z,4.40
2019-05-15T09:15:07.924Z,3.02
2019-05-15T09:17:34.613Z,3.00
2019-05-15T09:20:01.611Z,3.15
2019-05-15T09:22:29.166Z,3.70
2019-05-15T09:24:58.800Z,3.42
2019-05-15T09:27:25.236Z,3.08
2019-05-15T09:29:53.017Z,3.00
2019-05-15T09:32:19.535Z,2.90
2019-05-15T09:34:54.923Z,3.40
2019-05-15T09:37:18.024Z,2.72
2019-05-15T09:39:45.103Z,2.40
2019-05-15T09:42:11.732Z,2.60
2019-05-15T09:44:39.198Z,3.08
2019-05-15T09:47:09.174Z,3.15
2019-05-15T09:49:38.968Z,2.60
2019-05-15T09:52:05.261Z,2.60
2019-05-15T09:54:32.413Z,3.02
2019-05-15T09:56:59.174Z,2.87
2019-05-15T09:59:28.004Z,3.40
2019-05-15T10:01:54.516Z,3.00
2019-05-15T10:04:21.415Z,2.92
2019-05-15T10:06:48.632Z,2.70
2019-05-15T10:09:18.675Z,3.08
2019-05-15T10:11:44.945Z,3.30
2019-05-15T10:14:11.933Z,2.80
2019-05-15T10:16:38.760Z,3.00
2019-05-15T10:19:08.944Z,3.33
2019-05-15T10:21:35.789Z,3.17
2019-05-15T10:24:02.820Z,3.40
2019-05-15T10:26:29.403Z,3.52
2019-05-15T10:28:58.426Z,3.50
2019-05-15T10:31:24.869Z,3.17
2019-05-15T10:33:53.537Z,3.75
2019-05-15T10:36:20.423Z,3.90
2019-05-15T10:38:48.798Z,3.00
2019-05-15T10:41:15.725Z,3.35
2019-05-15T10:43:45.741Z,2.87
2019-05-15T10:46:13.504Z,3.52
2019-05-15T10:48:39.897Z,3.62
2019-05-15T10:51:10.085Z,3.22
2019-05-15T10:53:35.259Z,3.40
2019-05-15T10:56:02.695Z,2.83
2019-05-15T10:58:29.555Z,3.90
2019-05-15T11:01:00.925Z,3.52
2019-05-15T11:03:25.279Z,8.30
2019-05-15T11:05:51.992Z,7.72
2019-05-15T11:08:19.008Z,4.17
2019-05-15T11:10:48.608Z,3.52
2019-05-15T11:13:14.486Z,3.90
2019-05-15T11:15:42.599Z,2.95
2019-05-15T11:18:09.635Z,3.17
2019-05-15T11:20:40.914Z,3.17
2019-05-15T11:23:08.104Z,3.80
2019-05-15T11:25:37.662Z,4.25
2019-05-15T11:28:04.225Z,3.65
2019-05-15T11:30:30.804Z,3.35
2019-05-15T11:32:58.761Z,3.70
2019-05-15T11:35:28.364Z,3.90
2019-05-15T11:37:57.013Z,4.60
2019-05-15T11:40:23.433Z,4.17
2019-05-15T11:42:51.148Z,3.45
2019-05-15T11:45:19.302Z,3.55
2019-05-15T11:47:48.128Z,4.58
2019-05-15T11:50:20.029Z,4.53
2019-05-15T11:52:45.811Z,4.28
2019-05-15T11:55:13.060Z,3.35
2019-05-15T11:57:46.831Z,3.55
2019-05-15T12:00:17.110Z,3.83
2019-05-15T12:02:38.609Z,4.20
2019-05-15T12:05:08.937Z,3.95
2019-05-15T12:07:38.006Z,3.85
2019-05-15T12:10:10.410Z,3.55
2019-05-15T12:12:38.594Z,4.30
2019-05-15T12:15:05.541Z,4.67
2019-05-15T12:17:34.248Z,3.80
2019-05-15T12:20:06.454Z,3.40
2019-05-15T12:22:29.916Z,3.98
2019-05-15T12:25:00.165Z,3.30
2019-05-15T12:27:25.476Z,3.95
2019-05-15T12:29:52.098Z,3.33
2019-05-15T12:34:49.501Z,3.65
2019-05-15T12:37:16.118Z,4.12
2019-05-15T12:37:59.046Z,3.10
2019-05-15T12:39:42.949Z,4.35
2019-05-15T13:02:04.718Z,6.17
2019-05-15T13:04:31.919Z,5.60
2019-05-15T13:07:12.921Z,4.35
2019-05-15T13:09:29.830Z,3.80
2019-05-15T13:11:56.452Z,5.70
2019-05-15T13:14:22.947Z,5.30
2019-05-15T13:16:49.730Z,6.30
2019-05-15T13:19:18.758Z,5.15
2019-05-15T13:21:44.955Z,4.75
2019-05-15T13:24:11.717Z,4.75
2019-05-15T13:26:38.620Z,6.00
2019-05-15T13:29:05.509Z,6.22
2019-05-15T13:31:33.883Z,5.03
2019-05-15T13:34:00.788Z,4.45
2019-05-15T13:36:29.261Z,5.10
2019-05-15T13:38:57.881Z,5.40
2019-05-15T13:41:24.828Z,6.53
2019-05-15T13:43:51.516Z,5.45
2019-05-15T13:46:20.644Z,4.80
2019-05-15T13:48:49.032Z,5.37
2019-05-15T13:51:18.251Z,6.10
2019-05-15T13:53:45.098Z,5.53
2019-05-15T13:56:11.666Z,4.72
2019-05-15T13:58:38.951Z,5.83
2019-05-15T14:01:07.238Z,6.20
2019-05-15T14:03:34.713Z,6.65
2019-05-15T14:06:01.732Z,7.33
2019-05-15T14:08:29.005Z,6.78
2019-05-15T14:10:58.111Z,6.20
2019-05-15T14:13:24.500Z,5.45
2019-05-15T14:15:52.617Z,6.70
2019-05-15T14:18:19.893Z,6.65
2019-05-15T14:20:48.898Z,4.75
2019-05-15T14:23:15.844Z,5.55
2019-05-15T14:25:42.985Z,4.92
2019-05-15T14:28:09.819Z,6.55
2019-05-15T14:30:37.616Z,6.37
2019-05-15T14:33:04.260Z,5.17
2019-05-15T14:35:31.009Z,4.33
2019-05-15T14:38:06.297Z,3.98
2019-05-15T14:40:28.486Z,5.10
2019-05-15T14:42:55.637Z,5.70
2019-05-15T14:45:22.610Z,4.60
2019-05-15T14:47:49.539Z,8.78
2019-05-15T14:50:16.763Z,21.07
2019-05-15T14:52:43.589Z,8.30
2019-05-15T14:55:11.365Z,7.10
2019-05-15T14:57:39.677Z,5.65
2019-05-15T15:00:08.964Z,4.85
2019-05-15T15:02:38.644Z,4.70
2019-05-15T15:05:04.830Z,7.42
2019-05-15T15:07:31.521Z,6.40
2019-05-15T15:09:58.367Z,5.80
2019-05-15T15:12:25.029Z,6.45
2019-05-15T15:14:51.636Z,6.58
2019-05-15T15:17:19.567Z,7.35
2019-05-15T15:19:51.605Z,6.37
2019-05-15T15:22:15.789Z,6.67
2019-05-15T15:24:42.558Z,5.60
2019-05-15T15:27:09.370Z,7.00
2019-05-15T15:29:38.753Z,7.87
2019-05-15T15:32:04.902Z,7.60
2019-05-15T15:34:31.752Z,7.17
2019-05-15T15:36:58.587Z,5.58
2019-05-15T15:39:25.265Z,6.10
2019-05-15T15:41:52.024Z,6.87
2019-05-15T15:44:18.854Z,7.83
2019-05-15T15:46:48.308Z,5.83
2019-05-15T15:49:16.951Z,6.15
2019-05-15T15:51:43.484Z,5.78
2019-05-15T15:54:10.180Z,7.80
2019-05-15T15:56:39.169Z,7.75
2019-05-15T15:59:05.526Z,7.00
2019-05-15T16:01:33.890Z,6.97
2019-05-15T16:04:01.442Z,7.00
2019-05-15T16:06:29.353Z,8.00
2019-05-15T16:08:56.494Z,8.85
2019-05-15T16:11:23.384Z,8.48
2019-05-15T16:13:50.244Z,7.70
2019-05-15T16:16:17.954Z,8.40
2019-05-15T16:18:44.920Z,9.55
2019-05-15T16:21:11.558Z,10.15
2019-05-15T16:23:38.706Z,8.50
2019-05-15T16:26:05.623Z,8.35
2019-05-15T16:28:34.163Z,8.08
2019-05-15T16:31:01.067Z,9.55
2019-05-15T16:33:28.319Z,9.88
2019-05-15T16:35:57.963Z,62.10
2019-05-15T16:38:25.192Z,37.78
2019-05-15T16:40:52.379Z,13.68
2019-05-15T16:43:19.008Z,9.70
2019-05-15T16:45:49.493Z,8.63
2019-05-15T16:48:14.549Z,6.92
2019-05-15T16:50:41.183Z,6.80
2019-05-15T16:53:09.170Z,7.10
2019-05-15T16:55:37.834Z,7.60
2019-05-15T16:58:04.612Z,8.43
2019-05-15T17:00:31.755Z,7.20
2019-05-15T17:03:09.013Z,6.15
2019-05-15T17:05:29.093Z,7.85
2019-05-15T17:07:58.181Z,7.65
2019-05-15T17:10:24.725Z,8.00
2019-05-15T17:12:54.476Z,6.47
2019-05-15T17:15:21.301Z,6.00
2019-05-15T17:17:50.110Z,6.35
2019-05-15T17:20:18.185Z,7.97
2019-05-15T17:22:45.525Z,8.60
2019-05-15T17:25:12.584Z,7.35
2019-05-15T17:27:39.193Z,7.55
2019-05-15T17:30:09.590Z,8.28
2019-05-15T17:32:39.735Z,9.05
2019-05-15T17:35:09.753Z,9.00
2019-05-15T17:37:37.982Z,7.60
2019-05-15T17:40:05.817Z,7.58
2019-05-15T17:42:32.584Z,8.35
2019-05-15T17:44:59.114Z,9.25
2019-05-15T17:47:28.439Z,10.08
2019-05-15T17:49:55.785Z,9.28
2019-05-15T17:52:23.364Z,9.95
2019-05-15T17:54:50.218Z,10.72
2019-05-15T17:57:19.305Z,11.73
2019-05-15T17:59:45.480Z,13.65
2019-05-15T18:02:12.180Z,10.13
2019-05-15T18:04:39.077Z,10.68
2019-05-15T18:07:08.457Z,11.53
2019-05-15T18:09:47.560Z,13.08
2019-05-15T18:12:03.879Z,12.73
2019-05-15T18:14:30.770Z,11.22
2019-05-15T18:16:58.595Z,11.48
2019-05-15T18:19:25.550Z,10.72
2019-05-15T18:21:52.283Z,12.20
2019-05-15T18:24:19.304Z,12.10
2019-05-15T18:26:46.026Z,11.12
2019-05-15T18:29:13.190Z,11.75
2019-05-15T18:31:40.241Z,12.63
2019-05-15T18:34:08.299Z,13.80
2019-05-15T18:36:35.530Z,14.07
2019-05-15T18:39:03.866Z,12.33
2019-05-15T18:41:31.070Z,11.78
2019-05-15T18:43:57.991Z,11.55
2019-05-15T18:46:24.960Z,12.40
2019-05-15T18:48:51.878Z,12.13
2019-05-15T18:51:19.142Z,11.60
2019-05-15T18:53:55.253Z,11.25
2019-05-15T18:57:18.662Z,11.68
2019-05-15T19:00:08.773Z,14.95
2019-05-15T19:02:48.017Z,11.43
2019-05-15T19:05:15.225Z,12.28
2019-05-15T19:07:58.209Z,12.95
2019-05-15T19:10:38.607Z,15.18
2019-05-15T19:13:53.891Z,17.45
2019-05-15T19:16:23.746Z,13.13
2019-05-15T19:19:33.271Z,12.50
2019-05-15T19:22:29.517Z,15.13
2019-05-15T19:25:05.203Z,20.02
2019-05-15T19:27:33.325Z,17.02
2019-05-15T19:30:00.650Z,15.53
2019-05-15T19:32:30.282Z,15.48
2019-05-15T19:34:58.865Z,18.75
2019-05-15T19:37:25.742Z,20.90
2019-05-15T19:39:52.745Z,18.45
2019-05-15T19:42:19.533Z,17.80
2019-05-15T19:44:48.312Z,19.95
2019-05-15T19:50:05.123Z,24.30
2019-05-15T19:52:31.970Z,21.20
2019-05-15T19:54:59.285Z,19.42
2019-05-15T19:57:28.015Z,20.45
2019-05-15T19:59:54.938Z,23.67
2019-05-15T20:02:21.759Z,22.82
2019-05-15T20:04:49.170Z,20.82
2019-05-15T20:07:18.590Z,20.60
2019-05-15T20:09:47.635Z,19.37
2019-05-15T20:12:14.530Z,20.75
2019-05-15T20:14:41.888Z,25.23
2019-05-15T20:17:08.596Z,20.00
2019-05-15T20:19:35.567Z,18.90
2019-05-15T20:22:02.382Z,19.32
2019-05-15T20:24:29.441Z,21.30
2019-05-15T20:26:56.148Z,21.95
2019-05-15T20:29:23.040Z,18.05
2019-05-15T20:31:50.008Z,17.45
2019-05-15T20:34:17.017Z,17.42
2019-05-15T20:36:43.675Z,21.57
2019-05-15T20:39:10.726Z,18.48
2019-05-15T20:41:38.497Z,17.32
2019-05-15T20:44:05.893Z,17.35
2019-05-15T20:46:32.863Z,17.85
2019-05-15T20:48:59.647Z,19.48
2019-05-15T20:51:29.035Z,21.57
2019-05-15T20:53:57.864Z,16.95
2019-05-15T20:56:24.410Z,16.62
2019-05-15T20:58:51.030Z,16.48
2019-05-15T21:01:18.307Z,19.73
2019-05-15T21:03:45.429Z,22.40
2019-05-15T21:06:12.618Z,18.25
2019-05-15T21:08:39.833Z,18.57
2019-05-15T21:11:11.334Z,18.60
2019-05-15T21:13:35.326Z,20.17
2019-05-15T21:16:02.229Z,21.45
2019-05-15T21:18:31.330Z,18.32
2019-05-15T21:20:58.123Z,18.30
2019-05-15T21:23:25.445Z,20.30
2019-05-15T21:25:52.145Z,21.05
2019-05-15T21:28:19.217Z,21.65
2019-05-15T21:30:48.823Z,18.82
2019-05-15T21:33:14.812Z,18.35
2019-05-15T21:35:41.738Z,17.52
2019-05-15T21:38:09.486Z,20.80
2019-05-15T21:40:38.450Z,19.80
2019-05-15T21:43:04.829Z,18.27
2019-05-15T21:45:37.626Z,16.17
2019-05-15T21:48:04.551Z,19.70
2019-05-15T21:50:31.370Z,23.18
2019-05-15T21:52:58.344Z,20.97
2019-05-15T21:55:25.237Z,18.48
2019-05-15T21:57:52.365Z,17.73
2019-05-15T22:03:49.540Z,21.55
2019-05-15T22:09:48.731Z,17.75
2019-05-15T22:12:18.252Z,15.80
2019-05-15T22:14:44.551Z,20.70
2019-05-15T22:17:12.100Z,21.20
2019-05-15T22:19:39.014Z,17.35
2019-05-15T22:22:05.635Z,18.17
2019-05-15T22:27:31.805Z,18.35
2019-05-15T22:29:58.924Z,21.00
2019-05-15T22:32:25.761Z,17.67
2019-05-15T22:35:05.739Z,16.42
2019-05-15T22:37:21.682Z,16.48
2019-05-15T22:39:48.633Z,18.42
2019-05-15T22:42:18.144Z,20.17
2019-05-15T22:44:44.296Z,16.75
2019-05-15T22:47:11.157Z,15.43
2019-05-15T22:49:38.147Z,16.45
2019-05-15T22:52:11.039Z,18.95
2019-05-15T22:54:58.457Z,19.25
2019-05-15T22:57:25.160Z,15.75
2019-05-15T22:59:54.629Z,14.13
2019-05-15T23:02:28.359Z,15.00
2019-05-15T23:04:55.019Z,15.10
2019-05-15T23:07:22.141Z,18.50
2019-05-15T23:09:49.097Z,15.70
2019-05-15T23:12:18.177Z,15.10
2019-05-15T23:14:44.583Z,15.88
2019-05-15T23:17:11.980Z,17.27
2019-05-15T23:19:38.648Z,15.95
2019-05-15T23:22:08.193Z,16.48
2019-05-15T23:24:38.585Z,14.28
2019-05-15T23:27:05.026Z,14.95
2019-05-15T23:29:50.732Z,17.35
2019-05-15T23:32:18.217Z,15.13
2019-05-15T23:34:45.110Z,14.47
2019-05-15T23:37:14.340Z,14.55
2019-05-15T23:40:00.986Z,14.70
2019-05-15T23:42:29.181Z,18.07
2019-05-15T23:44:56.408Z,18.65
2019-05-15T23:47:22.983Z,16.15
2019-05-15T23:49:49.608Z,15.18
2019-05-15T23:52:18.470Z,15.38
2019-05-15T23:55:08.498Z,16.60
2019-05-15T23:57:35.267Z,17.20
